createdAt,value
2022-09-12T00:01:50.579Z,5.65
2022-09-12T00:05:11.528Z,5.68
2022-09-12T00:08:32.536Z,5.43
2022-09-12T00:11:56.554Z,5.38
2022-09-12T00:15:18.523Z,5.57
2022-09-12T00:18:39.568Z,5.90
2022-09-12T00:22:00.520Z,5.97
2022-09-12T00:25:21.561Z,5.88
2022-09-12T00:28:42.529Z,6.30
2022-09-12T00:32:03.539Z,5.90
2022-09-12T00:35:24.539Z,5.53
2022-09-12T00:38:48.551Z,5.63
2022-09-12T00:42:09.537Z,5.07
2022-09-12T00:45:41.586Z,5.30
2022-09-12T00:49:10.531Z,5.07
2022-09-12T00:53:17.550Z,5.47
2022-09-12T00:56:41.537Z,5.07
2022-09-12T01:00:29.539Z,5.30
2022-09-12T01:03:50.562Z,6.22
2022-09-12T01:07:12.543Z,5.80
2022-09-12T01:10:34.551Z,6.10
2022-09-12T01:13:56.550Z,5.65
2022-09-12T01:17:17.597Z,5.63
2022-09-12T01:20:59.557Z,5.85
2022-09-12T01:24:43.559Z,5.65
2022-09-12T01:28:33.551Z,5.15
2022-09-12T01:31:54.592Z,5.25
2022-09-12T01:35:29.538Z,5.45
2022-09-12T01:39:02.551Z,5.35
2022-09-12T01:42:55.549Z,4.82
2022-09-12T01:46:30.550Z,5.72
2022-09-12T01:50:09.564Z,5.10
2022-09-12T01:53:37.552Z,4.97
2022-09-12T01:57:02.554Z,5.85
2022-09-12T02:00:26.542Z,5.65
2022-09-12T02:03:54.571Z,5.53
2022-09-12T02:07:24.556Z,5.20
2022-09-12T02:10:50.599Z,4.70
2022-09-12T02:14:17.550Z,5.90
2022-09-12T02:17:39.789Z,6.27
2022-09-12T02:21:03.558Z,6.35
2022-09-12T02:24:28.601Z,7.03
2022-09-12T02:27:58.558Z,7.70
2022-09-12T02:31:43.563Z,7.15
2022-09-12T02:35:13.597Z,6.72
2022-09-12T02:39:00.621Z,7.20
2022-09-12T02:42:22.586Z,6.95
2022-09-12T02:45:43.601Z,6.72
2022-09-12T02:49:04.589Z,6.25
2022-09-12T02:52:25.570Z,7.05
2022-09-12T02:55:48.574Z,6.82
2022-09-12T02:59:13.579Z,7.30
2022-09-12T03:02:46.585Z,7.60
2022-09-12T03:06:21.568Z,7.85
2022-09-12T03:09:51.618Z,7.97
2022-09-12T03:13:37.562Z,7.30
2022-09-12T03:17:31.571Z,7.72
2022-09-12T03:21:06.598Z,8.27
2022-09-12T03:25:05.572Z,7.93
2022-09-12T03:28:29.602Z,7.10
2022-09-12T03:31:50.571Z,8.05
2022-09-12T03:35:11.580Z,7.60
2022-09-12T03:38:33.574Z,8.43
2022-09-12T03:41:54.593Z,7.78
2022-09-12T03:45:15.585Z,8.95
2022-09-12T03:48:38.651Z,7.80
2022-09-12T03:51:59.617Z,7.55
2022-09-12T03:55:20.599Z,9.07
2022-09-12T03:58:44.616Z,8.93
2022-09-12T04:02:05.631Z,9.95
2022-09-12T04:05:26.574Z,9.15
2022-09-12T04:08:48.589Z,7.68
2022-09-12T04:12:09.587Z,8.15
2022-09-12T04:15:31.596Z,9.05
2022-09-12T04:18:52.585Z,8.40
2022-09-12T04:22:13.614Z,7.95
2022-09-12T04:25:34.603Z,8.38
2022-09-12T04:28:55.583Z,8.23
2022-09-12T04:32:16.598Z,8.18
2022-09-12T04:35:37.623Z,8.50
2022-09-12T04:39:00.615Z,7.55
2022-09-12T04:42:21.612Z,8.75
2022-09-12T04:45:42.650Z,7.72
2022-09-12T04:49:03.590Z,9.02
2022-09-12T04:52:17.618Z,8.77
2022-09-12T04:55:38.613Z,9.45
2022-09-12T04:59:00.613Z,9.23
2022-09-12T05:02:21.643Z,8.93
2022-09-12T05:05:42.624Z,7.70
2022-09-12T05:09:05.610Z,8.57
2022-09-12T05:12:26.625Z,8.25
2022-09-12T05:15:47.608Z,7.45
2022-09-12T05:19:09.659Z,8.68
2022-09-12T05:22:30.614Z,8.35
2022-09-12T05:25:51.625Z,8.95
2022-09-12T05:29:13.607Z,8.50
2022-09-12T05:32:34.621Z,7.95
2022-09-12T05:35:55.621Z,8.05
2022-09-12T05:39:17.614Z,8.00
2022-09-12T05:42:38.614Z,6.63
2022-09-12T05:45:59.659Z,6.80
2022-09-12T05:49:23.615Z,6.72
2022-09-12T05:52:39.617Z,6.10
2022-09-12T05:56:00.620Z,6.40
2022-09-12T05:59:34.621Z,6.28
2022-09-12T06:02:55.620Z,6.57
2022-09-12T06:06:20.638Z,10.60
2022-09-12T06:09:41.614Z,7.35
2022-09-12T06:13:02.634Z,6.18
2022-09-12T06:16:24.663Z,5.95
2022-09-12T06:19:45.628Z,6.90
2022-09-12T06:23:09.647Z,6.97
2022-09-12T06:26:32.625Z,6.55
2022-09-12T06:29:46.641Z,6.35
2022-09-12T06:33:07.652Z,6.55
2022-09-12T06:36:37.651Z,5.57
2022-09-12T06:39:51.655Z,6.20
2022-09-12T06:43:12.640Z,5.93
2022-09-12T06:46:33.631Z,7.10
2022-09-12T06:49:54.662Z,5.10
2022-09-12T06:53:15.630Z,5.82
2022-09-12T06:56:39.645Z,6.05
2022-09-12T07:00:00.631Z,33.67
2022-09-12T07:03:21.694Z,8.15
2022-09-12T07:06:51.632Z,7.70
2022-09-12T07:10:13.633Z,5.95
2022-09-12T07:13:34.638Z,5.03
2022-09-12T07:16:55.706Z,5.60
2022-09-12T07:20:16.637Z,4.30
2022-09-12T07:23:37.648Z,4.93
2022-09-12T07:26:58.649Z,4.00
2022-09-12T07:30:20.652Z,6.22
2022-09-12T07:33:41.741Z,4.57
2022-09-12T07:37:02.642Z,4.10
2022-09-12T07:40:23.655Z,4.43
2022-09-12T07:43:44.703Z,4.50
2022-09-12T07:47:05.642Z,4.65
2022-09-12T07:50:26.655Z,4.70
2022-09-12T07:53:50.641Z,4.03
2022-09-12T07:57:11.672Z,4.00
2022-09-12T08:00:33.638Z,4.53
2022-09-12T08:04:00.656Z,4.50
2022-09-12T08:07:22.707Z,4.93
2022-09-12T08:10:43.654Z,4.05
2022-09-12T08:14:04.672Z,4.68
2022-09-12T08:17:25.650Z,5.10
2022-09-12T08:20:46.667Z,6.10
2022-09-12T08:24:10.681Z,4.72
2022-09-12T08:27:31.661Z,5.40
2022-09-12T08:30:52.748Z,5.65
2022-09-12T08:34:13.671Z,5.47
2022-09-12T08:37:34.699Z,6.15
2022-09-12T08:41:06.672Z,5.95
2022-09-12T08:44:33.663Z,6.18
2022-09-12T08:47:58.670Z,6.00
2022-09-12T08:51:23.655Z,7.25
2022-09-12T08:54:45.677Z,7.15
2022-09-12T08:58:00.675Z,7.13
2022-09-12T09:01:50.725Z,6.25
2022-09-12T09:05:28.654Z,6.18
2022-09-12T09:12:46.688Z,6.40
2022-09-12T09:16:25.681Z,6.97
2022-09-12T09:19:54.764Z,6.63
2022-09-12T09:23:29.682Z,7.47
2022-09-12T09:27:36.900Z,7.55
2022-09-12T09:30:56.696Z,7.78
2022-09-12T09:34:26.685Z,7.32
2022-09-12T09:37:58.703Z,8.48
2022-09-12T09:41:49.689Z,8.38
2022-09-12T09:45:16.706Z,9.07
2022-09-12T09:48:46.790Z,9.52
2022-09-12T09:52:10.736Z,9.50
2022-09-12T09:55:37.685Z,9.18
2022-09-12T09:58:58.712Z,10.48
2022-09-12T10:02:38.715Z,9.60
2022-09-12T10:06:03.710Z,9.88
2022-09-12T10:09:44.687Z,9.98
2022-09-12T10:13:20.697Z,11.20
2022-09-12T10:16:46.684Z,10.18
2022-09-12T10:20:20.998Z,9.93
2022-09-12T10:23:44.771Z,10.70
2022-09-12T10:27:27.687Z,11.48
2022-09-12T10:30:49.727Z,11.02
2022-09-12T10:34:12.702Z,11.25
2022-09-12T10:37:52.226Z,10.88
2022-09-12T10:41:16.709Z,10.65
2022-09-12T10:44:45.721Z,12.32
2022-09-12T10:48:08.708Z,11.45
2022-09-12T10:51:40.720Z,11.80
2022-09-12T10:55:01.706Z,11.20
2022-09-12T10:58:51.743Z,11.23
2022-09-12T11:02:42.814Z,12.75
2022-09-12T11:06:08.712Z,12.25
2022-09-12T11:09:45.726Z,11.02
2022-09-12T11:13:59.730Z,11.23
2022-09-12T11:18:00.741Z,10.73
2022-09-12T11:21:52.732Z,10.07
2022-09-12T11:25:13.729Z,11.55
2022-09-12T11:28:59.761Z,12.10
2022-09-12T11:32:38.763Z,11.15
2022-09-12T11:36:04.731Z,11.13
2022-09-12T11:39:30.724Z,10.15
2022-09-12T11:42:54.732Z,10.80
2022-09-12T11:46:31.738Z,10.43
2022-09-12T11:50:12.807Z,11.07
2022-09-12T11:53:47.857Z,11.30
2022-09-12T11:57:50.743Z,11.45
2022-09-12T12:01:25.708Z,11.63
2022-09-12T12:05:09.742Z,11.27
2022-09-12T12:08:30.764Z,11.15
2022-09-12T12:11:58.745Z,12.85
2022-09-12T12:15:20.740Z,10.98
2022-09-12T12:18:43.725Z,10.98
2022-09-12T12:22:05.761Z,11.23
2022-09-12T12:25:29.873Z,11.48
2022-09-12T12:28:57.770Z,10.20
2022-09-12T12:32:19.735Z,10.50
2022-09-12T12:35:49.764Z,10.60
2022-09-12T12:39:11.756Z,9.65
2022-09-12T12:42:47.795Z,9.70
2022-09-12T12:46:16.799Z,10.93
2022-09-12T12:49:41.794Z,9.40
2022-09-12T12:53:13.745Z,9.73
2022-09-12T12:56:58.752Z,9.48
2022-09-12T13:00:40.004Z,9.68
2022-09-12T13:04:10.790Z,8.88
2022-09-12T13:07:54.812Z,8.23
2022-09-12T13:11:27.740Z,8.20
2022-09-12T13:15:07.758Z,7.55
2022-09-12T13:18:35.806Z,7.22
2022-09-12T13:22:28.766Z,6.65
2022-09-12T13:25:50.756Z,6.63
2022-09-12T13:29:34.778Z,6.70
2022-09-12T13:32:56.768Z,6.05
2022-09-12T13:36:48.768Z,6.70
2022-09-12T13:40:30.788Z,6.13
2022-09-12T13:43:56.746Z,6.35
2022-09-12T13:47:17.789Z,5.47
2022-09-12T13:50:41.785Z,6.35
2022-09-12T13:54:03.770Z,5.80
2022-09-12T13:57:47.790Z,5.90
2022-09-12T14:01:24.842Z,5.28
2022-09-12T14:05:03.828Z,6.40
2022-09-12T14:08:27.791Z,5.80
2022-09-12T14:11:51.781Z,4.80
2022-09-12T14:15:16.147Z,5.35
2022-09-12T14:18:45.881Z,5.63
2022-09-12T14:22:08.812Z,5.60
2022-09-12T14:25:38.805Z,6.15
2022-09-12T14:29:01.132Z,4.47
2022-09-12T14:32:34.825Z,4.68
2022-09-12T14:36:19.802Z,4.47
2022-09-12T14:39:55.865Z,4.75
2022-09-12T14:43:17.852Z,5.10
2022-09-12T14:46:46.204Z,4.18
2022-09-12T14:50:11.133Z,4.85
2022-09-12T14:53:31.801Z,4.10
2022-09-12T14:57:09.886Z,4.00
2022-09-12T15:03:59.967Z,4.07
2022-09-12T15:07:55.939Z,4.70
2022-09-12T15:11:19.805Z,4.25
2022-09-12T15:14:40.794Z,4.07
2022-09-12T15:18:06.228Z,5.22
2022-09-12T15:21:31.811Z,4.88
2022-09-12T15:24:52.811Z,4.97
2022-09-12T15:28:13.773Z,4.63
2022-09-12T15:31:36.894Z,3.95
2022-09-12T15:34:59.994Z,4.55
2022-09-12T15:38:25.643Z,4.00
2022-09-12T15:41:48.805Z,4.60
2022-09-12T15:45:11.829Z,3.95
2022-09-12T15:48:33.805Z,3.80
2022-09-12T15:51:54.860Z,4.97
2022-09-12T15:55:16.976Z,4.40
2022-09-12T15:58:49.795Z,4.28
2022-09-12T16:02:11.030Z,5.03
2022-09-12T16:05:35.921Z,4.70
2022-09-12T16:08:56.825Z,4.40
2022-09-12T16:12:17.804Z,4.22
2022-09-12T16:15:39.069Z,4.47
2022-09-12T16:19:00.058Z,3.90
2022-09-12T16:22:20.830Z,4.60
2022-09-12T16:25:41.999Z,4.60
2022-09-12T16:29:08.957Z,4.05
2022-09-12T16:32:29.962Z,4.75
2022-09-12T16:35:50.861Z,4.75
2022-09-12T16:39:13.097Z,6.15
2022-09-12T16:42:33.876Z,5.80
2022-09-12T16:45:54.864Z,6.00
2022-09-12T16:49:15.830Z,7.75
2022-09-12T16:52:36.841Z,5.95
2022-09-12T16:56:03.134Z,6.40
2022-09-12T16:59:23.832Z,5.53
2022-09-12T17:02:45.052Z,6.07
2022-09-12T17:06:27.910Z,5.72
2022-09-12T17:09:49.888Z,5.20
2022-09-12T17:13:11.015Z,4.70
2022-09-12T17:16:32.884Z,4.55
2022-09-12T17:19:54.252Z,4.60
2022-09-12T17:23:14.833Z,4.13
2022-09-12T17:26:35.837Z,5.40
2022-09-12T17:29:57.114Z,4.78
2022-09-12T17:33:17.849Z,3.85
2022-09-12T17:36:38.859Z,4.30
2022-09-12T17:40:02.914Z,4.25
2022-09-12T17:43:24.129Z,3.75
2022-09-12T17:46:50.864Z,3.75
2022-09-12T17:50:30.912Z,4.75
2022-09-12T17:53:51.851Z,3.88
2022-09-12T17:57:12.832Z,4.07
2022-09-12T18:00:54.143Z,4.15
2022-09-12T18:04:14.955Z,3.45
2022-09-12T18:07:35.951Z,3.67
2022-09-12T18:10:56.917Z,3.67
2022-09-12T18:14:19.427Z,3.80
2022-09-12T18:17:49.986Z,3.67
2022-09-12T18:21:10.859Z,3.75
2022-09-12T18:24:31.970Z,4.20
2022-09-12T18:27:52.875Z,3.65
2022-09-12T18:31:14.058Z,4.38
2022-09-12T18:34:34.855Z,4.72
2022-09-12T18:37:56.873Z,3.35
2022-09-12T18:41:24.089Z,4.38
2022-09-12T18:44:44.927Z,3.65
2022-09-12T18:48:05.921Z,3.80
2022-09-12T18:51:30.042Z,4.80
2022-09-12T18:54:50.940Z,4.22
2022-09-12T18:58:12.935Z,3.83
2022-09-12T19:01:36.973Z,3.78
2022-09-12T19:04:57.893Z,4.28
2022-09-12T19:08:18.871Z,4.60
2022-09-12T19:11:42.173Z,3.78
2022-09-12T19:15:02.926Z,4.00
2022-09-12T19:18:23.911Z,4.00
2022-09-12T19:21:45.878Z,3.75
2022-09-12T19:25:06.964Z,4.43
2022-09-12T19:28:27.880Z,3.80
2022-09-12T19:31:48.906Z,4.43
2022-09-12T19:35:09.855Z,4.57
2022-09-12T19:38:31.891Z,3.75
2022-09-12T19:41:53.875Z,5.43
2022-09-12T19:45:14.901Z,4.28
2022-09-12T19:48:35.900Z,4.75
2022-09-12T19:51:56.908Z,4.03
2022-09-12T19:55:17.898Z,4.47
2022-09-12T19:58:38.889Z,5.03
2022-09-12T20:01:59.979Z,4.65
2022-09-12T20:05:20.883Z,4.00
2022-09-12T20:08:41.923Z,4.70
2022-09-12T20:12:02.919Z,4.05
2022-09-12T20:15:24.878Z,4.45
2022-09-12T20:18:45.955Z,3.97
2022-09-12T20:22:07.951Z,4.68
2022-09-12T20:25:28.912Z,4.18
2022-09-12T20:28:50.908Z,5.18
2022-09-12T20:32:12.091Z,4.20
2022-09-12T20:35:33.985Z,4.53
2022-09-12T20:38:55.883Z,4.60
2022-09-12T20:42:16.879Z,4.60
2022-09-12T20:45:37.902Z,4.15
2022-09-12T20:48:59.948Z,4.20
2022-09-12T20:52:20.902Z,3.85
2022-09-12T20:55:41.916Z,4.32
2022-09-12T20:59:02.912Z,4.22
2022-09-12T21:02:27.958Z,4.95
2022-09-12T21:05:48.899Z,4.78
2022-09-12T21:09:09.899Z,4.20
2022-09-12T21:12:30.879Z,3.85
2022-09-12T21:15:52.968Z,4.78
2022-09-12T21:19:13.892Z,4.32
2022-09-12T21:22:34.993Z,4.18
2022-09-12T21:25:55.893Z,4.28
2022-09-12T21:29:16.959Z,4.55
2022-09-12T21:32:40.904Z,4.57
2022-09-12T21:36:02.902Z,4.60
2022-09-12T21:39:23.907Z,4.10
2022-09-12T21:42:44.899Z,4.50
2022-09-12T21:46:10.923Z,4.28
2022-09-12T21:49:24.909Z,4.80
2022-09-12T21:52:45.900Z,5.00
2022-09-12T21:56:06.906Z,4.90
2022-09-12T21:59:28.900Z,5.25
2022-09-12T22:02:49.923Z,4.53
2022-09-12T22:06:17.771Z,4.18
2022-09-12T22:09:41.908Z,3.95
2022-09-12T22:13:02.895Z,4.45
2022-09-12T22:16:23.950Z,4.40
2022-09-12T22:19:45.910Z,4.15
2022-09-12T22:23:25.910Z,4.25
2022-09-12T22:26:56.919Z,4.35
2022-09-12T22:30:18.907Z,3.80
2022-09-12T22:33:39.959Z,4.13
2022-09-12T22:37:01.914Z,4.68
2022-09-12T22:40:23.996Z,5.55
2022-09-12T22:43:45.911Z,5.45
2022-09-12T22:47:06.940Z,5.63
2022-09-12T22:50:27.971Z,5.93
2022-09-12T22:53:49.931Z,6.32
2022-09-12T22:57:10.924Z,5.88
2022-09-12T23:00:33.979Z,6.10
2022-09-12T23:03:54.915Z,5.80
2022-09-12T23:07:16.951Z,5.05
2022-09-12T23:10:37.908Z,5.97
2022-09-12T23:14:00.927Z,6.25
2022-09-12T23:17:21.910Z,5.55
2022-09-12T23:20:42.933Z,5.55
2022-09-12T23:23:57.917Z,5.30
2022-09-12T23:27:18.926Z,5.18
2022-09-12T23:30:39.919Z,5.25
2022-09-12T23:34:00.957Z,4.90
2022-09-12T23:37:21.954Z,4.90
2022-09-12T23:40:42.945Z,5.22
2022-09-12T23:44:03.981Z,4.85
2022-09-12T23:47:24.981Z,5.00
2022-09-12T23:50:45.930Z,4.60
2022-09-12T23:54:06.940Z,4.72
2022-09-12T23:57:27.935Z,5.30
